Time,TemperatureF,DewpointF,PressureIn,WindDirection,WindDirectionDegrees,WindSpeedMPH,WindSpeedGustMPH,Humidity,HourlyPrecipIn,Conditions,Clouds,dailyrainin,SoftwareType,DateUTC
2014-01-17 00:43:00,33.0,30.0,30.11,SW,229,0.0,0.0,88,0.00,,,-99.99,,2014-01-17 05:43:00,
2014-01-17 01:42:00,35.0,30.0,30.10,SSE,152,0.0,0.0,81,0.00,,,-99.99,,2014-01-17 06:42:00,
2014-01-17 02:42:00,38.0,27.0,30.13,WSW,251,2.0,4.0,65,0.00,,,-99.99,,2014-01-17 07:42:00,
2014-01-17 03:42:00,34.0,28.0,30.12,SW,218,0.0,0.0,78,0.00,,,-99.99,,2014-01-17 08:42:00,
2014-01-17 04:44:00,33.0,27.0,30.10,SW,224,0.0,3.0,80,0.00,,,-99.99,,2014-01-17 09:44:00,
2014-01-17 05:43:00,32.0,28.0,30.10,SSW,212,1.0,5.0,84,0.00,,,-99.99,,2014-01-17 10:43:00,
2014-01-17 06:42:00,32.0,28.0,30.10,SE,133,0.0,0.0,84,0.00,,,-99.99,,2014-01-17 11:42:00,
2014-01-17 07:42:00,33.0,29.0,30.10,South,190,1.0,2.0,83,0.00,,,-99.99,,2014-01-17 12:42:00,
2014-01-17 08:42:00,36.0,30.0,30.10,ESE,108,0.0,0.0,80,0.00,,,-99.99,,2014-01-17 13:42:00,
2014-01-17 09:42:00,43.0,27.0,30.11,WSW,245,3.0,6.0,54,0.00,,,-99.99,,2014-01-17 14:42:00,
2014-01-17 10:44:00,49.0,33.0,30.12,SW,221,3.0,6.0,54,0.00,,,-99.99,,2014-01-17 15:44:00,
2014-01-17 11:42:00,53.0,36.0,30.12,WSW,245,6.0,13.0,52,0.00,,,-99.99,,2014-01-17 16:42:00,
2014-01-17 12:42:00,55.0,37.0,30.09,SSW,210,3.0,10.0,51,0.00,,,-99.99,,2014-01-17 17:42:00,
2014-01-17 13:42:00,57.0,39.0,30.05,South,184,2.0,6.0,51,0.00,,,-99.99,,2014-01-17 18:42:00,
2014-01-17 14:42:00,58.0,43.0,30.00,SSE,168,3.0,6.0,58,0.00,,,-99.99,,2014-01-17 19:42:00,
2014-01-17 15:42:00,56.0,43.0,29.98,SSE,166,3.0,8.0,62,0.00,,,-99.99,,2014-01-17 20:42:00,
2014-01-17 16:43:00,57.0,43.0,29.97,South,176,3.0,7.0,60,0.00,,,-99.99,,2014-01-17 21:43:00,
2014-01-17 17:42:00,56.0,45.0,29.96,South,175,3.0,8.0,65,0.00,,,-99.99,,2014-01-17 22:42:00,
2014-01-17 18:43:00,55.0,46.0,29.96,South,180,3.0,6.0,74,0.00,,,-99.99,,2014-01-17 23:43:00,
2014-01-17 19:42:00,54.0,48.0,29.95,South,172,2.0,5.0,79,0.00,,,-99.99,,2014-01-18 00:42:00,
2014-01-17 20:42:00,54.0,48.0,29.95,South,183,3.0,8.0,80,0.00,,,-99.99,,2014-01-18 01:42:00,
2014-01-17 21:42:00,54.0,48.0,29.95,South,182,2.0,5.0,80,0.00,,,-99.99,,2014-01-18 02:42:00,
2014-01-17 22:43:00,54.0,48.0,29.95,WSW,243,2.0,6.0,81,0.00,,,-99.99,,2014-01-18 03:43:00,
2014-01-17 23:42:00,54.0,43.0,29.96,SW,234,5.0,16.0,67,0.00,,,-99.99,,2014-01-18 04:42:00,